Tundra — 5BVN2 — position and weather

sailwx.info

Track history (hours):
 
Tides and Currents Weather Stations Pressure Air Temp Water Temp Dewpoint Dewpoint Depression Visibility Wind Speed Wind Dir Waves Ship Positions

Tundra

Last reported at 2017-Dec-18 17:31 UTC. Time now 2017-Dec-18 20:07 UTC.
Position N 56°54' E 011°45'.

Length 185 m; draft 6.5 m.

Type: Cargo ship. MMSI: 209015000.

Date/timePositionNaut miles runAvg speedWind from/ knotsBaromVisibWave heightAir tempDewpointWater temp
2017-Dec-18 17:31N 56°54' E 011°45'113.8
2017-Dec-18 17:29N 56°55' E 011°44'613.2
2017-Dec-18 17:00N 57°01' E 011°41'613.0
2017-Dec-18 16:30N 57°07' E 011°37'612.9
2017-Dec-18 16:01N 57°13' E 011°33'713.1
2017-Dec-18 15:31N 57°19' E 011°29'612.4
2017-Dec-18 15:00N 57°25' E 011°25'611.9
2017-Dec-18 14:30N 57°30' E 011°19'613.1
2017-Dec-18 14:01N 57°34' E 011°10'613.0
2017-Dec-18 13:31N 57°39' E 011°01'713.0
2017-Dec-18 13:00N 57°40' E 010°49'612.7
2017-Dec-18 12:30N 57°40' E 010°37'1 1.4
2017-Dec-18 11:55N 57°40' E 010°36'0 0.0
2017-Dec-18 11:28N 57°40' E 010°36'0 0.0
2017-Dec-18 10:55N 57°40' E 010°36'0 0.0
2017-Dec-18 10:25N 57°40' E 010°36'0 0.0
2017-Dec-18 09:55N 57°40' E 010°36'0 0.0
2017-Dec-18 09:25N 57°40' E 010°36'0 0.0
2017-Dec-18 08:58N 57°40' E 010°36'0 0.0
2017-Dec-18 08:28N 57°40' E 010°36'0 0.0
2017-Dec-18 07:58N 57°40' E 010°36'0 0.0
2017-Dec-18 07:25N 57°40' E 010°36'0 0.0
2017-Dec-18 06:58N 57°40' E 010°36'0 0.0
2017-Dec-18 06:28N 57°40' E 010°36'0 0.0
2017-Dec-18 05:49N 57°40' E 010°36'0 0.0
2017-Dec-18 05:28N 57°40' E 010°36'0 0.0
2017-Dec-18 04:55N 57°40' E 010°36'0 0.1
2017-Dec-18 04:25N 57°40' E 010°36'1 3.2
2017-Dec-18 04:00N 57°41' E 010°38'5 9.3
2017-Dec-18 03:30N 57°44' E 010°45'4 8.1
2017-Dec-18 03:00N 57°47' E 010°39'714.4
2017-Dec-18 02:30N 57°47' E 010°26'713.6
2017-Dec-18 02:00N 57°46' E 010°13'2313.7
2017-Dec-18 00:18N 57°45' E 009°29'413.7
2017-Dec-17 23:59N 57°45' E 009°21'713.9
2017-Dec-17 23:30N 57°44' E 009°09'714.1
2017-Dec-17 23:00N 57°43' E 008°55'4513.7
2017-Dec-17 19:44N 57°42' E 007°32'314.1
2017-Dec-17 19:30N 57°42' E 007°25'713.2
2017-Dec-17 19:00N 57°42' E 007°13'813.1
2017-Dec-17 18:22N 57°42' E 006°58'613.4
2017-Dec-17 17:57N 57°43' E 006°47'613.1
2017-Dec-17 17:30N 57°43' E 006°36'712.9
2017-Dec-17 16:56N 57°45' E 006°23'613.0
2017-Dec-17 16:30N 57°46' E 006°12'31313.4
2017-Dec-16 17:15N 58°42' W 003°32'20310.6
2017-Dec-15 22:04N 55°56' W 007°08'110.8
2017-Dec-15 21:57N 55°55' W 007°08'510.3
2017-Dec-15 21:25N 55°49' W 007°06'4 9.8
2017-Dec-15 20:59N 55°45' W 007°05'5 9.4
2017-Dec-15 20:27N 55°40' W 007°03'5 8.9
2017-Dec-15 19:54N 55°36' W 007°01'4 8.7
2017-Dec-15 19:30N 55°32' W 006°59'4 8.7
2017-Dec-15 19:00N 55°28' W 006°57'4 7.9
2017-Dec-15 18:29N 55°24' W 006°55'5 8.4
2017-Dec-15 17:56N 55°20' W 006°53'4 9.8
2017-Dec-15 17:30N 55°15' W 006°52'5 9.2
2017-Dec-15 16:57N 55°12' W 006°58'511.0
2017-Dec-15 16:29N 55°09' W 007°06'4 9.2
2017-Dec-15 16:00N 55°06' W 007°12'4 7.6
2017-Dec-15 15:30N 55°03' W 007°15'1 1.6
2017-Dec-15 14:53N 55°02' W 007°16'0 0.0
2017-Dec-15 14:29N 55°02' W 007°16'0 0.0
2017-Dec-15 13:53N 55°02' W 007°16'0 0.0
2017-Dec-15 13:26N 55°02' W 007°16'0 0.0
2017-Dec-15 12:59N 55°02' W 007°16'0 0.0
2017-Dec-15 12:29N 55°02' W 007°16'0 0.0
2017-Dec-15 11:59N 55°02' W 007°16'0 0.0
2017-Dec-15 11:23N 55°02' W 007°16'0 0.0
2017-Dec-15 10:59N 55°02' W 007°16'0 0.0
2017-Dec-15 10:29N 55°02' W 007°16'0 0.0
2017-Dec-15 09:47N 55°02' W 007°16'0 0.0
2017-Dec-15 09:29N 55°02' W 007°16'0 0.0
2017-Dec-15 08:59N 55°02' W 007°16'0 0.0
2017-Dec-15 08:29N 55°02' W 007°16'0 0.0
2017-Dec-15 07:59N 55°02' W 007°16'0 0.0
2017-Dec-15 07:29N 55°02' W 007°16'0 0.0
2017-Dec-15 06:56N 55°02' W 007°16'0 0.0
2017-Dec-15 06:29N 55°02' W 007°16'0 0.0
2017-Dec-15 05:56N 55°02' W 007°16'0 0.0
2017-Dec-15 05:23N 55°02' W 007°16'0 0.0
2017-Dec-15 04:53N 55°02' W 007°16'0 0.0
2017-Dec-14 18:26N 55°02' W 007°16'0 0.0
2017-Dec-14 17:56N 55°02' W 007°16'0 0.0
2017-Dec-14 17:29N 55°02' W 007°16'0 0.0
2017-Dec-14 16:53N 55°02' W 007°16'0 0.0
2017-Dec-14 16:29N 55°02' W 007°16'0 0.0
2017-Dec-14 15:59N 55°02' W 007°16'0 0.0
2017-Dec-14 14:53N 55°02' W 007°16'0 0.0
2017-Dec-14 14:29N 55°02' W 007°16'0 0.0
2017-Dec-14 13:47N 55°02' W 007°16'0 0.0
2017-Dec-14 13:26N 55°02' W 007°16'0 0.0
2017-Dec-14 12:53N 55°02' W 007°16'0 0.0
2017-Dec-14 11:59N 55°02' W 007°16'0 0.0
2017-Dec-14 09:17N 55°02' W 007°16'0 0.0
2017-Dec-14 08:53N 55°02' W 007°16'0 0.0
2017-Dec-14 08:26N 55°02' W 007°16'0 0.0
2017-Dec-14 05:47N 55°02' W 007°16'0 0.0
2017-Dec-14 05:23N 55°02' W 007°16'0 0.0
2017-Dec-14 04:59N 55°02' W 007°16'0 0.0
2017-Dec-14 04:29N 55°02' W 007°16'0 0.0
2017-Dec-14 03:53N 55°02' W 007°16'0 0.0
2017-Dec-14 03:17N 55°02' W 007°16'0 0.0
2017-Dec-14 02:59N 55°02' W 007°16'0 0.0
2017-Dec-14 02:17N 55°02' W 007°16'0 0.0
2017-Dec-14 01:59N 55°02' W 007°16'0 0.0
2017-Dec-13 19:08N 55°02' W 007°16'0 0.0
2017-Dec-13 18:56N 55°02' W 007°16'0 0.0
2017-Dec-13 18:20N 55°02' W 007°16'0 0.0
2017-Dec-13 17:59N 55°02' W 007°16'0 0.0
2017-Dec-13 17:29N 55°02' W 007°16'0 0.0
2017-Dec-13 16:53N 55°02' W 007°16'0 0.0
2017-Dec-13 16:29N 55°02' W 007°16'0 0.0
2017-Dec-13 15:44N 55°02' W 007°16'0 0.0
2017-Dec-13 15:23N 55°02' W 007°16'0 0.0
2017-Dec-13 14:56N 55°02' W 007°16'0 0.0
2017-Dec-13 14:02N 55°02' W 007°16'0 0.1
2017-Dec-13 13:56N 55°02' W 007°16'0 0.0
2017-Dec-13 09:17N 55°02' W 007°16'0 0.0
2017-Dec-13 08:59N 55°02' W 007°16'0 0.0
2017-Dec-13 08:14N 55°02' W 007°16'0 0.0
2017-Dec-13 07:53N 55°02' W 007°16'0 0.0
2017-Dec-13 07:29N 55°02' W 007°16'0 0.0
2017-Dec-13 06:53N 55°02' W 007°16'0 0.0
2017-Dec-13 06:11N 55°02' W 007°16'0 0.0
2017-Dec-13 05:59N 55°02' W 007°16'0 0.0
2017-Dec-12 22:05N 55°02' W 007°16'0 0.0
2017-Dec-12 19:11N 55°02' W 007°16'0 0.0
2017-Dec-12 15:59N 55°02' W 007°16'0 0.3
2017-Dec-12 15:30N 55°03' W 007°16'1 2.8
2017-Dec-12 15:00N 55°04' W 007°14'4 8.4
2017-Dec-12 14:29N 55°08' W 007°10'5 8.6
2017-Dec-12 13:57N 55°10' W 007°04'4 8.4
2017-Dec-12 13:27N 55°12' W 006°58'3 6.9
2017-Dec-12 13:00N 55°15' W 006°54'1 2.2
2017-Dec-12 12:30N 55°15' W 006°52'1 1.3
2017-Dec-12 11:42N 55°15' W 006°54'0 0.1
2017-Dec-12 11:30N 55°15' W 006°54'0 0.1
2017-Dec-12 11:00N 55°15' W 006°54'0 0.0
2017-Dec-12 10:30N 55°15' W 006°54'0 0.1
2017-Dec-12 10:00N 55°15' W 006°54'0 0.0
2017-Dec-12 09:30N 55°15' W 006°54'0 0.0
2017-Dec-12 08:57N 55°15' W 006°54'0 0.1
2017-Dec-12 08:30N 55°15' W 006°54'0 0.1
2017-Dec-12 08:00N 55°15' W 006°54'0 0.1
2017-Dec-12 06:51N 55°15' W 006°54'0 0.1
2017-Dec-12 06:30N 55°15' W 006°54'0 0.1
2017-Dec-12 06:00N 55°15' W 006°54'0 0.0
2017-Dec-12 04:57N 55°15' W 006°54'0 0.0
2017-Dec-12 04:30N 55°15' W 006°54'0 0.0
2017-Dec-12 03:57N 55°15' W 006°54'0 0.0
2017-Dec-12 02:15N 55°15' W 006°54'0 0.1
2017-Dec-12 02:00N 55°15' W 006°54'0 0.0
2017-Dec-12 01:27N 55°15' W 006°54'0 0.0
2017-Dec-12 00:48N 55°15' W 006°54'0 0.1
2017-Dec-12 00:24N 55°15' W 006°54'0 0.0
2017-Dec-11 23:48N 55°15' W 006°54'0 0.0
2017-Dec-11 23:27N 55°15' W 006°54'0 0.2
2017-Dec-11 22:59N 55°15' W 006°54'0 0.1
2017-Dec-11 22:30N 55°15' W 006°54'0 0.1
2017-Dec-11 21:54N 55°15' W 006°54'0 0.0
2017-Dec-11 21:30N 55°15' W 006°54'0 0.0
2017-Dec-11 20:54N 55°15' W 006°54'0 0.0
2017-Dec-11 20:24N 55°15' W 006°54'0 0.1
2017-Dec-11 19:47N 55°15' W 006°54'0 0.1
2017-Dec-11 19:20N 55°15' W 006°54'0 0.0
2017-Dec-11 18:59N 55°15' W 006°54'0 0.1
2017-Dec-11 18:24N 55°15' W 006°54'0 0.1
2017-Dec-11 17:57N 55°15' W 006°54'0 0.0
2017-Dec-11 17:14N 55°15' W 006°54'0 0.0
2017-Dec-11 16:38N 55°15' W 006°54'0 0.1
2017-Dec-11 16:24N 55°15' W 006°54'0 0.0
2017-Dec-11 15:54N 55°15' W 006°54'0 0.1
2017-Dec-11 15:30N 55°15' W 006°54'0 0.0
2017-Dec-11 14:48N 55°15' W 006°54'0 0.0
2017-Dec-11 14:30N 55°15' W 006°54'0 0.0
2017-Dec-11 14:00N 55°15' W 006°54'0 0.0
2017-Dec-11 13:26N 55°15' W 006°54'0 0.0
2017-Dec-11 12:53N 55°15' W 006°54'0 0.0
2017-Dec-11 12:15N 55°15' W 006°54'0 0.3
2017-Dec-11 11:59N 55°15' W 006°54'0 0.1
2017-Dec-11 11:29N 55°15' W 006°54'0 0.1
2017-Dec-11 10:56N 55°15' W 006°54'0 0.1
2017-Dec-11 10:29N 55°15' W 006°54'0 0.1
2017-Dec-11 09:56N 55°15' W 006°54'0 0.5
2017-Dec-11 09:29N 55°15' W 006°54'0 0.1
2017-Dec-11 08:44N 55°15' W 006°54'0 0.1
2017-Dec-11 08:20N 55°15' W 006°54'0 0.0
2017-Dec-11 07:59N 55°15' W 006°54'0 0.1
2017-Dec-11 06:56N 55°15' W 006°54'0 0.1
2017-Dec-11 06:29N 55°15' W 006°54'0 0.0
2017-Dec-11 05:56N 55°15' W 006°54'0 0.0
2017-Dec-11 05:05N 55°15' W 006°54'0 0.2
2017-Dec-11 04:59N 55°15' W 006°54'0 0.0
2017-Dec-11 04:29N 55°15' W 006°54'0 0.0
2017-Dec-11 02:41N 55°15' W 006°54'0 0.1
2017-Dec-11 02:14N 55°15' W 006°54'0 0.1
2017-Dec-11 01:53N 55°15' W 006°54'0 0.1
2017-Dec-11 01:23N 55°15' W 006°54'0 0.0
2017-Dec-10 23:44N 55°15' W 006°54'0 0.6
2017-Dec-10 23:29N 55°15' W 006°54'0 0.1
2017-Dec-10 22:53N 55°15' W 006°54'0 0.3
2017-Dec-10 22:26N 55°15' W 006°54'0 0.1
2017-Dec-10 21:53N 55°15' W 006°54'0 0.1
2017-Dec-10 21:29N 55°15' W 006°54'0 0.0
2017-Dec-10 20:14N 55°15' W 006°54'0 0.1
2017-Dec-10 17:14N 55°15' W 006°54'0 0.0
2017-Dec-10 16:53N 55°15' W 006°54'0 0.1
2017-Dec-10 16:29N 55°15' W 006°54'0 0.1
2017-Dec-10 15:56N 55°15' W 006°54'0 0.0
2017-Dec-10 15:20N 55°15' W 006°54'0 0.0
2017-Dec-10 14:47N 55°15' W 006°54'0 0.0
2017-Dec-10 14:29N 55°15' W 006°54'0 0.0
2017-Dec-10 13:41N 55°15' W 006°54'0 0.0
2017-Dec-10 13:05N 55°15' W 006°54'0 0.1
2017-Dec-10 12:53N 55°15' W 006°54'0 0.0
2017-Dec-10 12:11N 55°15' W 006°54'0 0.0
2017-Dec-10 11:59N 55°15' W 006°54'0 0.0
2017-Dec-10 11:29N 55°15' W 006°54'0 0.1
2017-Dec-10 10:44N 55°15' W 006°54'0 0.0
2017-Dec-10 10:29N 55°15' W 006°54'0 0.1
2017-Dec-10 08:22N 55°15' W 006°54'2 4.8
2017-Dec-10 08:00N 55°16' W 006°52'612.2
2017-Dec-10 07:30N 55°18' W 006°42'714.7
2017-Dec-10 07:00N 55°22' W 006°30'714.6
2017-Dec-10 06:30N 55°25' W 006°19'714.2
2017-Dec-10 06:00N 55°25' W 006°06'714.0
2017-Dec-10 05:30N 55°20' W 005°57'714.6
2017-Dec-10 05:00N 55°13' W 005°51'714.1
2017-Dec-10 04:30N 55°08' W 005°43'713.5
2017-Dec-10 04:00N 55°02' W 005°37'612.8
2017-Dec-10 03:30N 54°57' W 005°30'612.4
2017-Dec-10 03:01N 54°52' W 005°25'611.9
2017-Dec-10 02:31N 54°47' W 005°19'611.9
2017-Dec-10 02:01N 54°42' W 005°13'611.3
2017-Dec-10 01:31N 54°36' W 005°11'612.2
2017-Dec-10 01:01N 54°30' W 005°11'612.5
2017-Dec-10 00:31N 54°24' W 005°11'612.8
2017-Dec-10 00:01N 54°18' W 005°11'713.1
2017-Dec-09 23:31N 54°11' W 005°11'713.1
2017-Dec-09 23:01N 54°05' W 005°10'9011.9
2017-Dec-09 15:27N 52°37' W 005°45'613.6
2017-Dec-09 15:00N 52°31' W 005°48'714.0
2017-Dec-09 14:31N 52°25' W 005°51'714.7
2017-Dec-09 14:01N 52°17' W 005°55'714.9
2017-Dec-09 13:30N 52°10' W 005°58'714.7
2017-Dec-09 13:01N 52°05' W 006°06'713.8
2017-Dec-09 12:31N 52°03' W 006°16'714.5
2017-Dec-09 12:00N 52°02' W 006°28'714.4
2017-Dec-09 11:30N 52°02' W 006°40'713.6
2017-Dec-09 11:00N 52°03' W 006°51'713.0
2017-Dec-09 10:27N 52°09' W 006°58'510.6
2017-Dec-09 10:00N 52°13' W 006°56'4 7.6
2017-Dec-09 09:30N 52°17' W 006°60'1 2.6
2017-Dec-09 08:58N 52°16' W 007°02'0 0.0
2017-Dec-09 08:28N 52°16' W 007°02'0 0.0
2017-Dec-09 07:55N 52°16' W 007°02'0 0.0
2017-Dec-09 07:28N 52°16' W 007°02'0 0.0
2017-Dec-09 06:52N 52°16' W 007°02'0 0.0
2017-Dec-09 06:28N 52°16' W 007°02'0 0.0
2017-Dec-09 05:58N 52°16' W 007°02'0 0.0
2017-Dec-09 05:28N 52°16' W 007°02'0 0.0
2017-Dec-09 04:52N 52°16' W 007°02'0 0.0
2017-Dec-09 04:29N 52°16' W 007°02'0 0.0
2017-Dec-09 03:58N 52°16' W 007°02'0 0.0
2017-Dec-09 03:28N 52°16' W 007°02'0 0.0
2017-Dec-09 02:58N 52°16' W 007°02'0 0.0
2017-Dec-09 02:28N 52°16' W 007°02'0 0.0
2017-Dec-09 01:58N 52°16' W 007°02'0 0.0
2017-Dec-09 01:28N 52°16' W 007°02'0 0.0
2017-Dec-09 00:55N 52°16' W 007°02'0 0.0
2017-Dec-09 00:28N 52°16' W 007°02'0 0.0
2017-Dec-08 23:55N 52°16' W 007°02'0 0.0
2017-Dec-08 23:28N 52°16' W 007°02'0 0.0
2017-Dec-08 22:52N 52°16' W 007°02'0 0.0
2017-Dec-08 22:28N 52°16' W 007°02'0 0.0
2017-Dec-08 21:52N 52°16' W 007°02'0 0.0
2017-Dec-08 21:28N 52°16' W 007°02'0 0.0
2017-Dec-08 20:58N 52°16' W 007°02'0 0.0
2017-Dec-08 20:22N 52°16' W 007°02'0 0.0
2017-Dec-08 19:58N 52°16' W 007°02'0 0.0
2017-Dec-08 19:28N 52°16' W 007°02'0 0.0
2017-Dec-08 18:58N 52°16' W 007°02'0 0.0
2017-Dec-08 18:22N 52°16' W 007°02'0 0.0
2017-Dec-08 17:58N 52°16' W 007°02'  
Track history (hours):
 
Tides and Currents Weather Stations Pressure Air Temp Water Temp Dewpoint Dewpoint Depression Visibility Wind Speed Wind Dir Waves Ship Positions

Tundra

Last reported at 2017-Dec-18 17:31 UTC. Time now 2017-Dec-18 20:07 UTC.
Position N 56°54' E 011°45'.

Length 185 m; draft 6.5 m.

Type: Cargo ship. MMSI: 209015000.

Date/timePositionNaut miles runAvg speedWind from/ knotsBaromVisibWave heightAir tempDewpointWater temp
2017-Dec-18 17:31N 56°54' E 011°45'113.8
2017-Dec-18 17:29N 56°55' E 011°44'613.2
2017-Dec-18 17:00N 57°01' E 011°41'613.0
2017-Dec-18 16:30N 57°07' E 011°37'612.9
2017-Dec-18 16:01N 57°13' E 011°33'713.1
2017-Dec-18 15:31N 57°19' E 011°29'612.4
2017-Dec-18 15:00N 57°25' E 011°25'611.9
2017-Dec-18 14:30N 57°30' E 011°19'613.1
2017-Dec-18 14:01N 57°34' E 011°10'613.0
2017-Dec-18 13:31N 57°39' E 011°01'713.0
2017-Dec-18 13:00N 57°40' E 010°49'612.7
2017-Dec-18 12:30N 57°40' E 010°37'1 1.4
2017-Dec-18 11:55N 57°40' E 010°36'0 0.0
2017-Dec-18 11:28N 57°40' E 010°36'0 0.0
2017-Dec-18 10:55N 57°40' E 010°36'0 0.0
2017-Dec-18 10:25N 57°40' E 010°36'0 0.0
2017-Dec-18 09:55N 57°40' E 010°36'0 0.0
2017-Dec-18 09:25N 57°40' E 010°36'0 0.0
2017-Dec-18 08:58N 57°40' E 010°36'0 0.0
2017-Dec-18 08:28N 57°40' E 010°36'0 0.0
2017-Dec-18 07:58N 57°40' E 010°36'0 0.0
2017-Dec-18 07:25N 57°40' E 010°36'0 0.0
2017-Dec-18 06:58N 57°40' E 010°36'0 0.0
2017-Dec-18 06:28N 57°40' E 010°36'0 0.0
2017-Dec-18 05:49N 57°40' E 010°36'0 0.0
2017-Dec-18 05:28N 57°40' E 010°36'0 0.0
2017-Dec-18 04:55N 57°40' E 010°36'0 0.1
2017-Dec-18 04:25N 57°40' E 010°36'1 3.2
2017-Dec-18 04:00N 57°41' E 010°38'5 9.3
2017-Dec-18 03:30N 57°44' E 010°45'4 8.1
2017-Dec-18 03:00N 57°47' E 010°39'714.4
2017-Dec-18 02:30N 57°47' E 010°26'713.6
2017-Dec-18 02:00N 57°46' E 010°13'2313.7
2017-Dec-18 00:18N 57°45' E 009°29'413.7
2017-Dec-17 23:59N 57°45' E 009°21'713.9
2017-Dec-17 23:30N 57°44' E 009°09'714.1
2017-Dec-17 23:00N 57°43' E 008°55'4513.7
2017-Dec-17 19:44N 57°42' E 007°32'314.1
2017-Dec-17 19:30N 57°42' E 007°25'713.2
2017-Dec-17 19:00N 57°42' E 007°13'813.1
2017-Dec-17 18:22N 57°42' E 006°58'613.4
2017-Dec-17 17:57N 57°43' E 006°47'613.1
2017-Dec-17 17:30N 57°43' E 006°36'712.9
2017-Dec-17 16:56N 57°45' E 006°23'613.0
2017-Dec-17 16:30N 57°46' E 006°12'31313.4
2017-Dec-16 17:15N 58°42' W 003°32'20310.6
2017-Dec-15 22:04N 55°56' W 007°08'110.8
2017-Dec-15 21:57N 55°55' W 007°08'510.3
2017-Dec-15 21:25N 55°49' W 007°06'4 9.8
2017-Dec-15 20:59N 55°45' W 007°05'5 9.4
2017-Dec-15 20:27N 55°40' W 007°03'5 8.9
2017-Dec-15 19:54N 55°36' W 007°01'4 8.7
2017-Dec-15 19:30N 55°32' W 006°59'4 8.7
2017-Dec-15 19:00N 55°28' W 006°57'4 7.9
2017-Dec-15 18:29N 55°24' W 006°55'5 8.4
2017-Dec-15 17:56N 55°20' W 006°53'4 9.8
2017-Dec-15 17:30N 55°15' W 006°52'5 9.2
2017-Dec-15 16:57N 55°12' W 006°58'511.0
2017-Dec-15 16:29N 55°09' W 007°06'4 9.2
2017-Dec-15 16:00N 55°06' W 007°12'4 7.6
2017-Dec-15 15:30N 55°03' W 007°15'1 1.6
2017-Dec-15 14:53N 55°02' W 007°16'0 0.0
2017-Dec-15 14:29N 55°02' W 007°16'0 0.0
2017-Dec-15 13:53N 55°02' W 007°16'0 0.0
2017-Dec-15 13:26N 55°02' W 007°16'0 0.0
2017-Dec-15 12:59N 55°02' W 007°16'0 0.0
2017-Dec-15 12:29N 55°02' W 007°16'0 0.0
2017-Dec-15 11:59N 55°02' W 007°16'0 0.0
2017-Dec-15 11:23N 55°02' W 007°16'0 0.0
2017-Dec-15 10:59N 55°02' W 007°16'0 0.0
2017-Dec-15 10:29N 55°02' W 007°16'0 0.0
2017-Dec-15 09:47N 55°02' W 007°16'0 0.0
2017-Dec-15 09:29N 55°02' W 007°16'0 0.0
2017-Dec-15 08:59N 55°02' W 007°16'0 0.0
2017-Dec-15 08:29N 55°02' W 007°16'0 0.0
2017-Dec-15 07:59N 55°02' W 007°16'0 0.0
2017-Dec-15 07:29N 55°02' W 007°16'0 0.0
2017-Dec-15 06:56N 55°02' W 007°16'0 0.0
2017-Dec-15 06:29N 55°02' W 007°16'0 0.0
2017-Dec-15 05:56N 55°02' W 007°16'0 0.0
2017-Dec-15 05:23N 55°02' W 007°16'0 0.0
2017-Dec-15 04:53N 55°02' W 007°16'0 0.0
2017-Dec-14 18:26N 55°02' W 007°16'0 0.0
2017-Dec-14 17:56N 55°02' W 007°16'0 0.0
2017-Dec-14 17:29N 55°02' W 007°16'0 0.0
2017-Dec-14 16:53N 55°02' W 007°16'0 0.0
2017-Dec-14 16:29N 55°02' W 007°16'0 0.0
2017-Dec-14 15:59N 55°02' W 007°16'0 0.0
2017-Dec-14 14:53N 55°02' W 007°16'0 0.0
2017-Dec-14 14:29N 55°02' W 007°16'0 0.0
2017-Dec-14 13:47N 55°02' W 007°16'0 0.0
2017-Dec-14 13:26N 55°02' W 007°16'0 0.0
2017-Dec-14 12:53N 55°02' W 007°16'0 0.0
2017-Dec-14 11:59N 55°02' W 007°16'0 0.0
2017-Dec-14 09:17N 55°02' W 007°16'0 0.0
2017-Dec-14 08:53N 55°02' W 007°16'0 0.0
2017-Dec-14 08:26N 55°02' W 007°16'0 0.0
2017-Dec-14 05:47N 55°02' W 007°16'0 0.0
2017-Dec-14 05:23N 55°02' W 007°16'0 0.0
2017-Dec-14 04:59N 55°02' W 007°16'0 0.0
2017-Dec-14 04:29N 55°02' W 007°16'0 0.0
2017-Dec-14 03:53N 55°02' W 007°16'0 0.0
2017-Dec-14 03:17N 55°02' W 007°16'0 0.0
2017-Dec-14 02:59N 55°02' W 007°16'0 0.0
2017-Dec-14 02:17N 55°02' W 007°16'0 0.0
2017-Dec-14 01:59N 55°02' W 007°16'0 0.0
2017-Dec-13 19:08N 55°02' W 007°16'0 0.0
2017-Dec-13 18:56N 55°02' W 007°16'0 0.0
2017-Dec-13 18:20N 55°02' W 007°16'0 0.0
2017-Dec-13 17:59N 55°02' W 007°16'0 0.0
2017-Dec-13 17:29N 55°02' W 007°16'0 0.0
2017-Dec-13 16:53N 55°02' W 007°16'0 0.0
2017-Dec-13 16:29N 55°02' W 007°16'0 0.0
2017-Dec-13 15:44N 55°02' W 007°16'0 0.0
2017-Dec-13 15:23N 55°02' W 007°16'0 0.0
2017-Dec-13 14:56N 55°02' W 007°16'0 0.0
2017-Dec-13 14:02N 55°02' W 007°16'0 0.1
2017-Dec-13 13:56N 55°02' W 007°16'0 0.0
2017-Dec-13 09:17N 55°02' W 007°16'0 0.0
2017-Dec-13 08:59N 55°02' W 007°16'0 0.0
2017-Dec-13 08:14N 55°02' W 007°16'0 0.0
2017-Dec-13 07:53N 55°02' W 007°16'0 0.0
2017-Dec-13 07:29N 55°02' W 007°16'0 0.0
2017-Dec-13 06:53N 55°02' W 007°16'0 0.0
2017-Dec-13 06:11N 55°02' W 007°16'0 0.0
2017-Dec-13 05:59N 55°02' W 007°16'0 0.0
2017-Dec-12 22:05N 55°02' W 007°16'0 0.0
2017-Dec-12 19:11N 55°02' W 007°16'0 0.0
2017-Dec-12 15:59N 55°02' W 007°16'0 0.3
2017-Dec-12 15:30N 55°03' W 007°16'1 2.8
2017-Dec-12 15:00N 55°04' W 007°14'4 8.4
2017-Dec-12 14:29N 55°08' W 007°10'5 8.6
2017-Dec-12 13:57N 55°10' W 007°04'4 8.4
2017-Dec-12 13:27N 55°12' W 006°58'3 6.9
2017-Dec-12 13:00N 55°15' W 006°54'1 2.2
2017-Dec-12 12:30N 55°15' W 006°52'1 1.3
2017-Dec-12 11:42N 55°15' W 006°54'0 0.1
2017-Dec-12 11:30N 55°15' W 006°54'0 0.1
2017-Dec-12 11:00N 55°15' W 006°54'0 0.0
2017-Dec-12 10:30N 55°15' W 006°54'0 0.1
2017-Dec-12 10:00N 55°15' W 006°54'0 0.0
2017-Dec-12 09:30N 55°15' W 006°54'0 0.0
2017-Dec-12 08:57N 55°15' W 006°54'0 0.1
2017-Dec-12 08:30N 55°15' W 006°54'0 0.1
2017-Dec-12 08:00N 55°15' W 006°54'0 0.1
2017-Dec-12 06:51N 55°15' W 006°54'0 0.1
2017-Dec-12 06:30N 55°15' W 006°54'0 0.1
2017-Dec-12 06:00N 55°15' W 006°54'0 0.0
2017-Dec-12 04:57N 55°15' W 006°54'0 0.0
2017-Dec-12 04:30N 55°15' W 006°54'0 0.0
2017-Dec-12 03:57N 55°15' W 006°54'0 0.0
2017-Dec-12 02:15N 55°15' W 006°54'0 0.1
2017-Dec-12 02:00N 55°15' W 006°54'0 0.0
2017-Dec-12 01:27N 55°15' W 006°54'0 0.0
2017-Dec-12 00:48N 55°15' W 006°54'0 0.1
2017-Dec-12 00:24N 55°15' W 006°54'0 0.0
2017-Dec-11 23:48N 55°15' W 006°54'0 0.0
2017-Dec-11 23:27N 55°15' W 006°54'0 0.2
2017-Dec-11 22:59N 55°15' W 006°54'0 0.1
2017-Dec-11 22:30N 55°15' W 006°54'0 0.1
2017-Dec-11 21:54N 55°15' W 006°54'0 0.0
2017-Dec-11 21:30N 55°15' W 006°54'0 0.0
2017-Dec-11 20:54N 55°15' W 006°54'0 0.0
2017-Dec-11 20:24N 55°15' W 006°54'0 0.1
2017-Dec-11 19:47N 55°15' W 006°54'0 0.1
2017-Dec-11 19:20N 55°15' W 006°54'0 0.0
2017-Dec-11 18:59N 55°15' W 006°54'0 0.1
2017-Dec-11 18:24N 55°15' W 006°54'0 0.1
2017-Dec-11 17:57N 55°15' W 006°54'0 0.0
2017-Dec-11 17:14N 55°15' W 006°54'0 0.0
2017-Dec-11 16:38N 55°15' W 006°54'0 0.1
2017-Dec-11 16:24N 55°15' W 006°54'0 0.0
2017-Dec-11 15:54N 55°15' W 006°54'0 0.1
2017-Dec-11 15:30N 55°15' W 006°54'0 0.0
2017-Dec-11 14:48N 55°15' W 006°54'0 0.0
2017-Dec-11 14:30N 55°15' W 006°54'0 0.0
2017-Dec-11 14:00N 55°15' W 006°54'0 0.0
2017-Dec-11 13:26N 55°15' W 006°54'0 0.0
2017-Dec-11 12:53N 55°15' W 006°54'0 0.0
2017-Dec-11 12:15N 55°15' W 006°54'0 0.3
2017-Dec-11 11:59N 55°15' W 006°54'0 0.1
2017-Dec-11 11:29N 55°15' W 006°54'0 0.1
2017-Dec-11 10:56N 55°15' W 006°54'0 0.1
2017-Dec-11 10:29N 55°15' W 006°54'0 0.1
2017-Dec-11 09:56N 55°15' W 006°54'0 0.5
2017-Dec-11 09:29N 55°15' W 006°54'0 0.1
2017-Dec-11 08:44N 55°15' W 006°54'0 0.1
2017-Dec-11 08:20N 55°15' W 006°54'0 0.0
2017-Dec-11 07:59N 55°15' W 006°54'0 0.1
2017-Dec-11 06:56N 55°15' W 006°54'0 0.1
2017-Dec-11 06:29N 55°15' W 006°54'0 0.0
2017-Dec-11 05:56N 55°15' W 006°54'0 0.0
2017-Dec-11 05:05N 55°15' W 006°54'0 0.2
2017-Dec-11 04:59N 55°15' W 006°54'0 0.0
2017-Dec-11 04:29N 55°15' W 006°54'0 0.0
2017-Dec-11 02:41N 55°15' W 006°54'0 0.1
2017-Dec-11 02:14N 55°15' W 006°54'0 0.1
2017-Dec-11 01:53N 55°15' W 006°54'0 0.1
2017-Dec-11 01:23N 55°15' W 006°54'0 0.0
2017-Dec-10 23:44N 55°15' W 006°54'0 0.6
2017-Dec-10 23:29N 55°15' W 006°54'0 0.1
2017-Dec-10 22:53N 55°15' W 006°54'0 0.3
2017-Dec-10 22:26N 55°15' W 006°54'0 0.1
2017-Dec-10 21:53N 55°15' W 006°54'0 0.1
2017-Dec-10 21:29N 55°15' W 006°54'0 0.0
2017-Dec-10 20:14N 55°15' W 006°54'0 0.1
2017-Dec-10 17:14N 55°15' W 006°54'0 0.0
2017-Dec-10 16:53N 55°15' W 006°54'0 0.1
2017-Dec-10 16:29N 55°15' W 006°54'0 0.1
2017-Dec-10 15:56N 55°15' W 006°54'0 0.0
2017-Dec-10 15:20N 55°15' W 006°54'0 0.0
2017-Dec-10 14:47N 55°15' W 006°54'0 0.0
2017-Dec-10 14:29N 55°15' W 006°54'0 0.0
2017-Dec-10 13:41N 55°15' W 006°54'0 0.0
2017-Dec-10 13:05N 55°15' W 006°54'0 0.1
2017-Dec-10 12:53N 55°15' W 006°54'0 0.0
2017-Dec-10 12:11N 55°15' W 006°54'0 0.0
2017-Dec-10 11:59N 55°15' W 006°54'0 0.0
2017-Dec-10 11:29N 55°15' W 006°54'0 0.1
2017-Dec-10 10:44N 55°15' W 006°54'0 0.0
2017-Dec-10 10:29N 55°15' W 006°54'0 0.1
2017-Dec-10 08:22N 55°15' W 006°54'2 4.8
2017-Dec-10 08:00N 55°16' W 006°52'612.2
2017-Dec-10 07:30N 55°18' W 006°42'714.7
2017-Dec-10 07:00N 55°22' W 006°30'714.6
2017-Dec-10 06:30N 55°25' W 006°19'714.2
2017-Dec-10 06:00N 55°25' W 006°06'714.0
2017-Dec-10 05:30N 55°20' W 005°57'714.6
2017-Dec-10 05:00N 55°13' W 005°51'714.1
2017-Dec-10 04:30N 55°08' W 005°43'713.5
2017-Dec-10 04:00N 55°02' W 005°37'612.8
2017-Dec-10 03:30N 54°57' W 005°30'612.4
2017-Dec-10 03:01N 54°52' W 005°25'611.9
2017-Dec-10 02:31N 54°47' W 005°19'611.9
2017-Dec-10 02:01N 54°42' W 005°13'611.3
2017-Dec-10 01:31N 54°36' W 005°11'612.2
2017-Dec-10 01:01N 54°30' W 005°11'612.5
2017-Dec-10 00:31N 54°24' W 005°11'612.8
2017-Dec-10 00:01N 54°18' W 005°11'713.1
2017-Dec-09 23:31N 54°11' W 005°11'713.1
2017-Dec-09 23:01N 54°05' W 005°10'9011.9
2017-Dec-09 15:27N 52°37' W 005°45'613.6
2017-Dec-09 15:00N 52°31' W 005°48'714.0
2017-Dec-09 14:31N 52°25' W 005°51'714.7
2017-Dec-09 14:01N 52°17' W 005°55'714.9
2017-Dec-09 13:30N 52°10' W 005°58'714.7
2017-Dec-09 13:01N 52°05' W 006°06'713.8
2017-Dec-09 12:31N 52°03' W 006°16'714.5
2017-Dec-09 12:00N 52°02' W 006°28'714.4
2017-Dec-09 11:30N 52°02' W 006°40'713.6
2017-Dec-09 11:00N 52°03' W 006°51'713.0
2017-Dec-09 10:27N 52°09' W 006°58'510.6
2017-Dec-09 10:00N 52°13' W 006°56'4 7.6
2017-Dec-09 09:30N 52°17' W 006°60'1 2.6
2017-Dec-09 08:58N 52°16' W 007°02'0 0.0
2017-Dec-09 08:28N 52°16' W 007°02'0 0.0
2017-Dec-09 07:55N 52°16' W 007°02'0 0.0
2017-Dec-09 07:28N 52°16' W 007°02'0 0.0
2017-Dec-09 06:52N 52°16' W 007°02'0 0.0
2017-Dec-09 06:28N 52°16' W 007°02'0 0.0
2017-Dec-09 05:58N 52°16' W 007°02'0 0.0
2017-Dec-09 05:28N 52°16' W 007°02'0 0.0
2017-Dec-09 04:52N 52°16' W 007°02'0 0.0
2017-Dec-09 04:29N 52°16' W 007°02'0 0.0
2017-Dec-09 03:58N 52°16' W 007°02'0 0.0
2017-Dec-09 03:28N 52°16' W 007°02'0 0.0
2017-Dec-09 02:58N 52°16' W 007°02'0 0.0
2017-Dec-09 02:28N 52°16' W 007°02'0 0.0
2017-Dec-09 01:58N 52°16' W 007°02'0 0.0
2017-Dec-09 01:28N 52°16' W 007°02'0 0.0
2017-Dec-09 00:55N 52°16' W 007°02'0 0.0
2017-Dec-09 00:28N 52°16' W 007°02'0 0.0
2017-Dec-08 23:55N 52°16' W 007°02'0 0.0
2017-Dec-08 23:28N 52°16' W 007°02'0 0.0
2017-Dec-08 22:52N 52°16' W 007°02'0 0.0
2017-Dec-08 22:28N 52°16' W 007°02'0 0.0
2017-Dec-08 21:52N 52°16' W 007°02'0 0.0
2017-Dec-08 21:28N 52°16' W 007°02'0 0.0
2017-Dec-08 20:58N 52°16' W 007°02'0 0.0
2017-Dec-08 20:22N 52°16' W 007°02'0 0.0
2017-Dec-08 19:58N 52°16' W 007°02'0 0.0
2017-Dec-08 19:28N 52°16' W 007°02'0 0.0
2017-Dec-08 18:58N 52°16' W 007°02'0 0.0
2017-Dec-08 18:22N 52°16' W 007°02'0 0.0
2017-Dec-08 17:58N 52°16' W 007°02'  

Dump ship's entire track history